createdAt,value
2019-02-02T02:27:25.383Z,0.0
2019-02-02T02:38:24.686Z,0.0
2019-02-02T02:49:18.894Z,0.0
2019-02-02T03:00:13.194Z,0.0
2019-02-02T03:10:34.088Z,0.0
2019-02-02T03:20:51.684Z,0.0
2019-02-02T03:31:52.275Z,0.0
2019-02-02T03:42:19.655Z,0.0
2019-02-02T03:53:13.241Z,0.0
2019-02-02T04:03:27.699Z,0.0
2019-02-02T04:14:33.031Z,0.0
2019-02-02T04:25:20.629Z,0.0
2019-02-02T04:36:26.988Z,0.0
2019-02-02T04:47:20.661Z,0.0
2019-02-02T04:57:40.030Z,0.0
2019-02-02T05:08:01.561Z,0.0
2019-02-02T05:19:27.320Z,0.0
2019-02-02T05:30:18.562Z,0.0
2019-02-02T05:41:10.151Z,0.0
2019-02-02T05:51:57.863Z,0.0
2019-02-02T06:02:27.372Z,0.0
2019-02-02T06:13:33.146Z,0.0
2019-02-02T06:23:49.702Z,0.0
2019-02-02T06:35:39.638Z,0.0
2019-02-02T06:45:55.594Z,0.0
2019-02-02T06:56:44.936Z,4.0
2019-02-02T07:07:41.851Z,20.0
2019-02-02T07:18:35.300Z,40.0
2019-02-02T07:29:29.052Z,92.0
2019-02-02T07:40:35.083Z,220.0
2019-02-02T07:51:57.437Z,480.0
2019-02-02T08:02:16.981Z,792.0
2019-02-02T08:13:22.313Z,844.0
2019-02-02T08:24:19.953Z,1200.0
2019-02-02T08:34:47.186Z,2560.0
2019-02-02T08:45:54.173Z,3176.0
2019-02-02T08:56:42.048Z,2224.0
2019-02-02T09:07:32.532Z,1720.0
2019-02-02T09:17:45.896Z,1792.0
2019-02-02T09:28:02.854Z,2276.0
2019-02-02T09:39:18.763Z,2620.0
2019-02-02T09:50:23.687Z,2692.0
2019-02-02T10:03:49.612Z,2700.0
2019-02-02T10:14:37.489Z,3348.0
2019-02-02T10:25:25.282Z,3008.0
2019-02-02T10:36:10.641Z,2080.0
2019-02-02T10:46:57.595Z,3064.0
2019-02-02T10:57:47.802Z,2808.0
2019-02-02T11:08:01.429Z,2416.0
2019-02-02T11:18:49.542Z,2576.0
2019-02-02T11:29:03.717Z,2868.0
2019-02-02T11:39:29.420Z,2960.0
2019-02-02T11:49:43.213Z,3032.0
2019-02-02T11:59:56.260Z,3040.0
2019-02-02T12:10:42.044Z,2180.0
2019-02-02T12:21:28.822Z,1852.0
2019-02-02T12:31:42.067Z,1516.0
2019-02-02T12:41:53.947Z,1744.0
2019-02-02T12:52:22.193Z,2372.0
2019-02-02T13:02:38.039Z,2532.0
2019-02-02T13:12:54.008Z,3044.0
2019-02-02T13:23:46.043Z,3104.0
2019-02-02T13:34:45.701Z,2392.0
2019-02-02T13:45:42.921Z,1912.0
2019-02-02T13:55:56.918Z,2464.0
2019-02-02T14:06:08.413Z,1820.0
2019-02-02T14:16:22.523Z,1316.0
2019-02-02T14:27:16.134Z,1320.0
2019-02-02T15:26:38.164Z,812.0
2019-02-02T15:57:18.809Z,292.0
2019-02-02T16:13:53.395Z,132.0
2019-02-02T16:28:28.766Z,28.0
2019-02-02T17:11:24.413Z,0.0
2019-02-02T18:09:15.297Z,0.0
2019-02-02T18:21:41.203Z,0.0
2019-02-02T18:33:36.008Z,0.0
2019-02-02T18:45:50.518Z,0.0
2019-02-02T19:00:14.989Z,0.0
2019-02-02T19:27:01.144Z,0.0
2019-02-02T19:39:38.404Z,0.0
2019-02-02T19:53:55.861Z,0.0
2019-02-02T20:06:09.840Z,0.0
2019-02-02T20:45:11.478Z,0.0
2019-02-02T20:56:02.635Z,0.0
2019-02-02T21:06:17.720Z,0.0
2019-02-02T21:16:36.244Z,0.0
2019-02-02T21:27:28.517Z,0.0
2019-02-02T21:38:27.448Z,0.0
2019-02-02T21:49:47.081Z,0.0
2019-02-02T22:00:34.662Z,0.0
2019-02-02T22:11:21.327Z,0.0
2019-02-02T22:21:32.934Z,0.0
2019-02-02T22:31:44.176Z,0.0
2019-02-02T22:42:32.955Z,0.0
2019-02-02T22:52:47.253Z,0.0
2019-02-02T23:02:58.687Z,0.0
2019-02-02T23:18:57.270Z,0.0
2019-02-02T23:29:51.291Z,0.0
2019-02-02T23:40:05.878Z,0.0
2019-02-02T23:50:17.714Z,0.0
